sensor_id;sensor_type;location;lat;lon;timestamp;temperature;humidity
71291;DHT22;59073;51.994;4.448;2023-04-25T00:01:20;7.58;75.46
71291;DHT22;59073;51.994;4.448;2023-04-25T00:03:47;7.57;75.71
71291;DHT22;59073;51.994;4.448;2023-04-25T00:06:12;7.59;75.81
71291;DHT22;59073;51.994;4.448;2023-04-25T00:08:38;7.50;74.96
71291;DHT22;59073;51.994;4.448;2023-04-25T00:11:04;7.47;74.87
71291;DHT22;59073;51.994;4.448;2023-04-25T00:13:29;7.43;74.68
71291;DHT22;59073;51.994;4.448;2023-04-25T00:15:55;7.50;75.02
71291;DHT22;59073;51.994;4.448;2023-04-25T00:18:22;7.50;74.71
71291;DHT22;59073;51.994;4.448;2023-04-25T00:20:48;7.57;74.19
71291;DHT22;59073;51.994;4.448;2023-04-25T00:23:15;7.41;74.42
71291;DHT22;59073;51.994;4.448;2023-04-25T00:25:44;7.47;73.90
71291;DHT22;59073;51.994;4.448;2023-04-25T00:28:11;7.43;73.80
71291;DHT22;59073;51.994;4.448;2023-04-25T00:30:36;7.38;74.22
71291;DHT22;59073;51.994;4.448;2023-04-25T00:33:02;7.35;73.77
71291;DHT22;59073;51.994;4.448;2023-04-25T00:35:27;7.37;73.91
71291;DHT22;59073;51.994;4.448;2023-04-25T00:37:54;7.34;73.79
71291;DHT22;59073;51.994;4.448;2023-04-25T00:40:20;7.41;73.78
71291;DHT22;59073;51.994;4.448;2023-04-25T00:42:47;7.52;73.83
71291;DHT22;59073;51.994;4.448;2023-04-25T00:45:14;7.61;73.59
71291;DHT22;59073;51.994;4.448;2023-04-25T00:47:43;7.67;73.42
71291;DHT22;59073;51.994;4.448;2023-04-25T00:50:09;7.75;73.20
71291;DHT22;59073;51.994;4.448;2023-04-25T00:52:38;7.89;73.20
71291;DHT22;59073;51.994;4.448;2023-04-25T00:55:05;7.92;72.84
71291;DHT22;59073;51.994;4.448;2023-04-25T00:57:30;7.92;73.14
71291;DHT22;59073;51.994;4.448;2023-04-25T00:59:56;7.89;73.15
71291;DHT22;59073;51.994;4.448;2023-04-25T01:02:21;7.90;72.98
71291;DHT22;59073;51.994;4.448;2023-04-25T01:04:47;7.89;72.89
71291;DHT22;59073;51.994;4.448;2023-04-25T01:07:13;7.86;72.15
71291;DHT22;59073;51.994;4.448;2023-04-25T01:09:39;7.93;71.63
71291;DHT22;59073;51.994;4.448;2023-04-25T01:12:04;7.92;70.28
71291;DHT22;59073;51.994;4.448;2023-04-25T01:14:30;7.81;70.30
71291;DHT22;59073;51.994;4.448;2023-04-25T01:16:56;7.74;69.13
71291;DHT22;59073;51.994;4.448;2023-04-25T01:19:21;7.75;68.80
71291;DHT22;59073;51.994;4.448;2023-04-25T01:21:47;7.71;68.30
71291;DHT22;59073;51.994;4.448;2023-04-25T01:24:13;7.69;68.96
71291;DHT22;59073;51.994;4.448;2023-04-25T01:26:40;7.62;68.47
71291;DHT22;59073;51.994;4.448;2023-04-25T01:29:10;7.65;68.00
71291;DHT22;59073;51.994;4.448;2023-04-25T01:31:36;7.71;68.70
71291;DHT22;59073;51.994;4.448;2023-04-25T01:34:02;7.65;68.61
71291;DHT22;59073;51.994;4.448;2023-04-25T01:36:28;7.59;67.64
71291;DHT22;59073;51.994;4.448;2023-04-25T01:38:54;7.61;68.52
71291;DHT22;59073;51.994;4.448;2023-04-25T01:41:20;7.55;67.59
71291;DHT22;59073;51.994;4.448;2023-04-25T01:43:48;7.64;67.93
71291;DHT22;59073;51.994;4.448;2023-04-25T01:46:14;7.65;67.66
71291;DHT22;59073;51.994;4.448;2023-04-25T01:48:40;7.59;67.52
71291;DHT22;59073;51.994;4.448;2023-04-25T01:51:05;7.55;67.47
71291;DHT22;59073;51.994;4.448;2023-04-25T01:53:31;7.59;68.09
71291;DHT22;59073;51.994;4.448;2023-04-25T01:55:57;7.65;68.69
71291;DHT22;59073;51.994;4.448;2023-04-25T01:58:22;7.78;68.51
71291;DHT22;59073;51.994;4.448;2023-04-25T02:00:48;7.85;68.29
71291;DHT22;59073;51.994;4.448;2023-04-25T02:03:13;7.98;68.16
71291;DHT22;59073;51.994;4.448;2023-04-25T02:05:39;7.93;67.97
71291;DHT22;59073;51.994;4.448;2023-04-25T02:08:07;8.07;68.53
71291;DHT22;59073;51.994;4.448;2023-04-25T02:10:33;8.13;68.28
71291;DHT22;59073;51.994;4.448;2023-04-25T02:12:59;8.22;68.48
71291;DHT22;59073;51.994;4.448;2023-04-25T02:15:25;8.30;68.11
71291;DHT22;59073;51.994;4.448;2023-04-25T02:17:50;8.39;68.20
71291;DHT22;59073;51.994;4.448;2023-04-25T02:20:20;8.43;68.44
71291;DHT22;59073;51.994;4.448;2023-04-25T02:22:46;8.46;68.08
71291;DHT22;59073;51.994;4.448;2023-04-25T02:25:12;8.02;70.32
71291;DHT22;59073;51.994;4.448;2023-04-25T02:27:38;7.45;72.66
71291;DHT22;59073;51.994;4.448;2023-04-25T02:30:05;7.52;74.20
71291;DHT22;59073;51.994;4.448;2023-04-25T02:32:32;7.64;74.10
71291;DHT22;59073;51.994;4.448;2023-04-25T02:34:57;7.83;74.80
71291;DHT22;59073;51.994;4.448;2023-04-25T02:37:35;7.92;73.22
71291;DHT22;59073;51.994;4.448;2023-04-25T02:40:01;8.06;74.38
71291;DHT22;59073;51.994;4.448;2023-04-25T02:42:27;8.16;74.51
71291;DHT22;59073;51.994;4.448;2023-04-25T02:44:52;8.20;72.15
71291;DHT22;59073;51.994;4.448;2023-04-25T02:47:18;8.22;72.83
71291;DHT22;59073;51.994;4.448;2023-04-25T02:49:44;8.12;72.21
71291;DHT22;59073;51.994;4.448;2023-04-25T02:52:11;7.99;72.22
71291;DHT22;59073;51.994;4.448;2023-04-25T02:54:36;7.93;73.89
71291;DHT22;59073;51.994;4.448;2023-04-25T02:57:01;7.85;72.57
71291;DHT22;59073;51.994;4.448;2023-04-25T02:59:28;7.89;73.06
71291;DHT22;59073;51.994;4.448;2023-04-25T03:01:53;7.88;72.87
71291;DHT22;59073;51.994;4.448;2023-04-25T03:04:19;7.81;72.20
71291;DHT22;59073;51.994;4.448;2023-04-25T03:06:44;7.85;71.89
71291;DHT22;59073;51.994;4.448;2023-04-25T03:09:10;7.85;69.86
71291;DHT22;59073;51.994;4.448;2023-04-25T03:11:38;7.96;70.55
71291;DHT22;59073;51.994;4.448;2023-04-25T03:14:03;8.03;71.02
71291;DHT22;59073;51.994;4.448;2023-04-25T03:16:29;8.00;70.21
71291;DHT22;59073;51.994;4.448;2023-04-25T03:18:54;7.86;70.22
71291;DHT22;59073;51.994;4.448;2023-04-25T03:21:20;7.95;71.07
71291;DHT22;59073;51.994;4.448;2023-04-25T03:23:45;7.81;70.42
71291;DHT22;59073;51.994;4.448;2023-04-25T03:26:10;7.83;70.85
71291;DHT22;59073;51.994;4.448;2023-04-25T03:28:36;7.85;71.29
71291;DHT22;59073;51.994;4.448;2023-04-25T03:31:01;7.82;71.56
71291;DHT22;59073;51.994;4.448;2023-04-25T03:33:27;7.82;71.59
71291;DHT22;59073;51.994;4.448;2023-04-25T03:35:52;7.74;71.27
71291;DHT22;59073;51.994;4.448;2023-04-25T03:38:18;7.72;71.71
71291;DHT22;59073;51.994;4.448;2023-04-25T03:40:43;7.79;72.26
71291;DHT22;59073;51.994;4.448;2023-04-25T03:43:09;7.81;71.86
71291;DHT22;59073;51.994;4.448;2023-04-25T03:45:34;7.75;72.44
71291;DHT22;59073;51.994;4.448;2023-04-25T03:47:59;7.72;72.74
71291;DHT22;59073;51.994;4.448;2023-04-25T03:50:25;7.75;72.56
71291;DHT22;59073;51.994;4.448;2023-04-25T03:52:50;7.71;72.33
71291;DHT22;59073;51.994;4.448;2023-04-25T03:55:16;7.75;72.27
71291;DHT22;59073;51.994;4.448;2023-04-25T03:57:41;7.78;72.54
71291;DHT22;59073;51.994;4.448;2023-04-25T04:00:07;7.81;72.35
71291;DHT22;59073;51.994;4.448;2023-04-25T04:02:33;7.79;71.96
71291;DHT22;59073;51.994;4.448;2023-04-25T04:05:00;7.83;71.82
71291;DHT22;59073;51.994;4.448;2023-04-25T04:07:26;7.82;71.71
71291;DHT22;59073;51.994;4.448;2023-04-25T04:09:51;7.82;71.63
71291;DHT22;59073;51.994;4.448;2023-04-25T04:12:16;7.78;70.79
71291;DHT22;59073;51.994;4.448;2023-04-25T04:14:42;7.83;70.99
71291;DHT22;59073;51.994;4.448;2023-04-25T04:17:07;7.85;71.29
71291;DHT22;59073;51.994;4.448;2023-04-25T04:19:33;7.81;70.12
71291;DHT22;59073;51.994;4.448;2023-04-25T04:21:58;7.81;70.05
71291;DHT22;59073;51.994;4.448;2023-04-25T04:24:23;7.83;71.29
71291;DHT22;59073;51.994;4.448;2023-04-25T04:26:49;7.88;70.14
71291;DHT22;59073;51.994;4.448;2023-04-25T04:29:16;8.00;70.60
71291;DHT22;59073;51.994;4.448;2023-04-25T04:31:49;7.93;69.41
71291;DHT22;59073;51.994;4.448;2023-04-25T04:34:14;7.96;68.87
71291;DHT22;59073;51.994;4.448;2023-04-25T04:36:41;8.02;68.77
71291;DHT22;59073;51.994;4.448;2023-04-25T04:39:07;7.96;67.81
71291;DHT22;59073;51.994;4.448;2023-04-25T04:41:34;7.92;68.61
71291;DHT22;59073;51.994;4.448;2023-04-25T04:44:00;7.93;67.63
71291;DHT22;59073;51.994;4.448;2023-04-25T04:46:26;7.99;68.83
71291;DHT22;59073;51.994;4.448;2023-04-25T04:48:53;7.98;68.18
71291;DHT22;59073;51.994;4.448;2023-04-25T04:51:18;7.74;68.47
71291;DHT22;59073;51.994;4.448;2023-04-25T04:53:44;7.71;69.44
71291;DHT22;59073;51.994;4.448;2023-04-25T04:56:09;7.62;69.80
71291;DHT22;59073;51.994;4.448;2023-04-25T04:58:36;7.58;70.70
71291;DHT22;59073;51.994;4.448;2023-04-25T05:01:02;7.61;70.68
71291;DHT22;59073;51.994;4.448;2023-04-25T05:03:27;7.62;70.89
71291;DHT22;59073;51.994;4.448;2023-04-25T05:05:53;7.59;70.95
71291;DHT22;59073;51.994;4.448;2023-04-25T05:08:18;7.78;71.35
71291;DHT22;59073;51.994;4.448;2023-04-25T05:10:44;7.85;71.65
71291;DHT22;59073;51.994;4.448;2023-04-25T05:13:09;7.88;71.55
71291;DHT22;59073;51.994;4.448;2023-04-25T05:15:35;7.89;71.90
71291;DHT22;59073;51.994;4.448;2023-04-25T05:18:00;8.02;71.92
71291;DHT22;59073;51.994;4.448;2023-04-25T05:20:26;8.89;70.28
71291;DHT22;59073;51.994;4.448;2023-04-25T05:22:52;9.63;67.42
71291;DHT22;59073;51.994;4.448;2023-04-25T05:25:17;9.67;67.07
71291;DHT22;59073;51.994;4.448;2023-04-25T05:27:42;9.29;68.62
71291;DHT22;59073;51.994;4.448;2023-04-25T05:30:08;8.72;68.47
71291;DHT22;59073;51.994;4.448;2023-04-25T05:32:34;8.32;70.17
71291;DHT22;59073;51.994;4.448;2023-04-25T05:35:01;7.90;70.27
71291;DHT22;59073;51.994;4.448;2023-04-25T05:37:26;7.72;70.28
71291;DHT22;59073;51.994;4.448;2023-04-25T05:39:52;8.09;71.88
71291;DHT22;59073;51.994;4.448;2023-04-25T05:42:17;7.79;70.16
71291;DHT22;59073;51.994;4.448;2023-04-25T05:44:43;7.85;69.77
71291;DHT22;59073;51.994;4.448;2023-04-25T05:47:08;7.93;68.84
71291;DHT22;59073;51.994;4.448;2023-04-25T05:49:34;8.00;68.32
71291;DHT22;59073;51.994;4.448;2023-04-25T05:52:00;8.06;68.00
71291;DHT22;59073;51.994;4.448;2023-04-25T05:54:25;7.99;66.97
71291;DHT22;59073;51.994;4.448;2023-04-25T05:56:50;7.88;68.86
71291;DHT22;59073;51.994;4.448;2023-04-25T05:59:16;7.78;67.03
71291;DHT22;59073;51.994;4.448;2023-04-25T06:01:41;8.26;65.09
71291;DHT22;59073;51.994;4.448;2023-04-25T06:04:07;8.29;66.14
71291;DHT22;59073;51.994;4.448;2023-04-25T06:06:32;7.69;67.26
71291;DHT22;59073;51.994;4.448;2023-04-25T06:08:58;7.65;68.97
71291;DHT22;59073;51.994;4.448;2023-04-25T06:11:23;7.32;70.07
71291;DHT22;59073;51.994;4.448;2023-04-25T06:13:48;7.08;71.27
71291;DHT22;59073;51.994;4.448;2023-04-25T06:16:14;7.24;72.43
71291;DHT22;59073;51.994;4.448;2023-04-25T06:18:40;7.28;72.27
71291;DHT22;59073;51.994;4.448;2023-04-25T06:21:05;7.00;72.94
71291;DHT22;59073;51.994;4.448;2023-04-25T06:23:30;7.07;72.99
71291;DHT22;59073;51.994;4.448;2023-04-25T06:25:56;7.20;73.53
71291;DHT22;59073;51.994;4.448;2023-04-25T06:28:21;7.55;73.05
71291;DHT22;59073;51.994;4.448;2023-04-25T06:30:47;7.67;72.92
71291;DHT22;59073;51.994;4.448;2023-04-25T06:33:12;7.65;72.18
71291;DHT22;59073;51.994;4.448;2023-04-25T06:35:38;7.82;71.96
71291;DHT22;59073;51.994;4.448;2023-04-25T06:38:03;8.05;71.63
71291;DHT22;59073;51.994;4.448;2023-04-25T06:40:29;8.14;69.85
71291;DHT22;59073;51.994;4.448;2023-04-25T06:42:54;8.19;70.39
71291;DHT22;59073;51.994;4.448;2023-04-25T06:45:20;8.39;68.67
71291;DHT22;59073;51.994;4.448;2023-04-25T06:47:45;8.67;68.62
71291;DHT22;59073;51.994;4.448;2023-04-25T06:50:11;8.87;67.43
71291;DHT22;59073;51.994;4.448;2023-04-25T06:52:36;8.88;67.76
71291;DHT22;59073;51.994;4.448;2023-04-25T06:55:02;9.08;67.39
71291;DHT22;59073;51.994;4.448;2023-04-25T06:57:27;9.39;67.05
71291;DHT22;59073;51.994;4.448;2023-04-25T06:59:54;9.73;66.77
71291;DHT22;59073;51.994;4.448;2023-04-25T07:02:19;9.90;65.95
71291;DHT22;59073;51.994;4.448;2023-04-25T07:04:46;10.10;66.01
71291;DHT22;59073;51.994;4.448;2023-04-25T07:07:11;10.24;67.04
71291;DHT22;59073;51.994;4.448;2023-04-25T07:09:37;10.48;64.73
71291;DHT22;59073;51.994;4.448;2023-04-25T07:12:02;11.16;65.29
71291;DHT22;59073;51.994;4.448;2023-04-25T07:14:28;11.68;64.75
71291;DHT22;59073;51.994;4.448;2023-04-25T07:16:54;12.25;64.45
71291;DHT22;59073;51.994;4.448;2023-04-25T07:19:21;12.67;59.96
71291;DHT22;59073;51.994;4.448;2023-04-25T07:21:47;12.46;56.34
71291;DHT22;59073;51.994;4.448;2023-04-25T07:24:12;11.64;59.07
71291;DHT22;59073;51.994;4.448;2023-04-25T07:26:38;10.86;61.38
71291;DHT22;59073;51.994;4.448;2023-04-25T07:29:03;10.02;63.11
71291;DHT22;59073;51.994;4.448;2023-04-25T07:31:28;10.18;63.68
71291;DHT22;59073;51.994;4.448;2023-04-25T07:33:54;10.18;62.83
71291;DHT22;59073;51.994;4.448;2023-04-25T07:36:19;9.76;64.29
71291;DHT22;59073;51.994;4.448;2023-04-25T07:38:46;9.25;64.33
71291;DHT22;59073;51.994;4.448;2023-04-25T07:41:11;9.14;64.87
71291;DHT22;59073;51.994;4.448;2023-04-25T07:43:36;9.40;61.13
71291;DHT22;59073;51.994;4.448;2023-04-25T07:46:02;9.32;62.94
71291;DHT22;59073;51.994;4.448;2023-04-25T07:48:28;9.46;59.70
71291;DHT22;59073;51.994;4.448;2023-04-25T07:50:53;9.32;59.50
71291;DHT22;59073;51.994;4.448;2023-04-25T07:53:18;9.90;58.60
71291;DHT22;59073;51.994;4.448;2023-04-25T07:55:44;9.67;58.26
71291;DHT22;59073;51.994;4.448;2023-04-25T07:58:10;9.22;61.93
71291;DHT22;59073;51.994;4.448;2023-04-25T08:00:36;9.07;62.30
71291;DHT22;59073;51.994;4.448;2023-04-25T08:03:02;9.02;65.21
71291;DHT22;59073;51.994;4.448;2023-04-25T08:05:28;8.84;63.09
71291;DHT22;59073;51.994;4.448;2023-04-25T08:07:54;8.77;64.61
71291;DHT22;59073;51.994;4.448;2023-04-25T08:10:22;9.16;61.01
71291;DHT22;59073;51.994;4.448;2023-04-25T08:12:48;9.50;61.17
71291;DHT22;59073;51.994;4.448;2023-04-25T08:15:13;9.30;60.55
71291;DHT22;59073;51.994;4.448;2023-04-25T08:17:39;9.05;61.14
71291;DHT22;59073;51.994;4.448;2023-04-25T08:20:05;9.02;63.61
71291;DHT22;59073;51.994;4.448;2023-04-25T08:22:31;8.85;61.70
71291;DHT22;59073;51.994;4.448;2023-04-25T08:24:56;9.40;61.86
71291;DHT22;59073;51.994;4.448;2023-04-25T08:27:22;9.86;60.02
71291;DHT22;59073;51.994;4.448;2023-04-25T08:29:49;10.35;59.40
71291;DHT22;59073;51.994;4.448;2023-04-25T08:32:14;9.94;60.86
71291;DHT22;59073;51.994;4.448;2023-04-25T08:34:39;9.57;61.16
71291;DHT22;59073;51.994;4.448;2023-04-25T08:37:08;9.98;57.81
71291;DHT22;59073;51.994;4.448;2023-04-25T08:39:38;10.17;57.67
71291;DHT22;59073;51.994;4.448;2023-04-25T08:42:06;9.71;59.58
71291;DHT22;59073;51.994;4.448;2023-04-25T08:44:35;10.05;63.61
71291;DHT22;59073;51.994;4.448;2023-04-25T08:47:03;9.84;63.82
71291;DHT22;59073;51.994;4.448;2023-04-25T08:49:32;9.95;62.89
71291;DHT22;59073;51.994;4.448;2023-04-25T08:52:00;10.24;64.21
71291;DHT22;59073;51.994;4.448;2023-04-25T08:54:27;9.77;61.24
71291;DHT22;59073;51.994;4.448;2023-04-25T08:56:55;9.38;61.41
71291;DHT22;59073;51.994;4.448;2023-04-25T08:59:23;9.16;61.52
71291;DHT22;59073;51.994;4.448;2023-04-25T09:01:50;9.53;61.90
71291;DHT22;59073;51.994;4.448;2023-04-25T09:04:17;9.98;60.53
71291;DHT22;59073;51.994;4.448;2023-04-25T09:06:43;10.21;56.93
71291;DHT22;59073;51.994;4.448;2023-04-25T09:09:08;10.17;55.83
71291;DHT22;59073;51.994;4.448;2023-04-25T09:11:36;9.95;56.00
71291;DHT22;59073;51.994;4.448;2023-04-25T09:14:20;9.95;56.86
71291;DHT22;59073;51.994;4.448;2023-04-25T09:19:28;10.07;57.92
71291;DHT22;59073;51.994;4.448;2023-04-25T09:21:55;10.18;57.63
71291;DHT22;59073;51.994;4.448;2023-04-25T09:27:06;9.84;57.44
71291;DHT22;59073;51.994;4.448;2023-04-25T09:29:35;10.07;61.41
71291;DHT22;59073;51.994;4.448;2023-04-25T09:32:11;9.70;59.48
71291;DHT22;59073;51.994;4.448;2023-04-25T09:34:43;9.91;60.05
71291;DHT22;59073;51.994;4.448;2023-04-25T09:37:09;9.51;57.91
71291;DHT22;59073;51.994;4.448;2023-04-25T09:39:38;9.49;61.09
71291;DHT22;59073;51.994;4.448;2023-04-25T09:42:04;9.79;57.01
71291;DHT22;59073;51.994;4.448;2023-04-25T09:44:30;10.24;59.47
71291;DHT22;59073;51.994;4.448;2023-04-25T09:46:55;10.08;59.97
71291;DHT22;59073;51.994;4.448;2023-04-25T09:49:22;9.77;59.51
71291;DHT22;59073;51.994;4.448;2023-04-25T09:51:58;9.90;58.96
71291;DHT22;59073;51.994;4.448;2023-04-25T09:54:25;10.14;60.20
71291;DHT22;59073;51.994;4.448;2023-04-25T09:56:54;10.60;59.57
71291;DHT22;59073;51.994;4.448;2023-04-25T09:59:22;10.38;59.75
71291;DHT22;59073;51.994;4.448;2023-04-25T10:01:49;10.42;61.02
71291;DHT22;59073;51.994;4.448;2023-04-25T10:04:19;10.35;61.38
71291;DHT22;59073;51.994;4.448;2023-04-25T10:06:48;9.77;61.28
71291;DHT22;59073;51.994;4.448;2023-04-25T10:09:16;9.63;59.87
71291;DHT22;59073;51.994;4.448;2023-04-25T10:11:44;9.26;57.74
71291;DHT22;59073;51.994;4.448;2023-04-25T10:14:12;9.91;55.50
71291;DHT22;59073;51.994;4.448;2023-04-25T10:16:38;10.73;56.05
71291;DHT22;59073;51.994;4.448;2023-04-25T10:19:04;10.58;57.58
71291;DHT22;59073;51.994;4.448;2023-04-25T10:21:32;10.22;63.52
71291;DHT22;59073;51.994;4.448;2023-04-25T10:23:59;9.50;62.78
71291;DHT22;59073;51.994;4.448;2023-04-25T10:26:25;9.49;65.38
71291;DHT22;59073;51.994;4.448;2023-04-25T10:29:02;9.07;65.96
71291;DHT22;59073;51.994;4.448;2023-04-25T10:31:29;9.33;65.77
71291;DHT22;59073;51.994;4.448;2023-04-25T10:33:55;10.12;64.27
71291;DHT22;59073;51.994;4.448;2023-04-25T10:36:23;10.45;60.86
71291;DHT22;59073;51.994;4.448;2023-04-25T10:38:51;10.35;59.56
71291;DHT22;59073;51.994;4.448;2023-04-25T10:41:20;10.14;57.85
71291;DHT22;59073;51.994;4.448;2023-04-25T10:43:47;10.07;59.67
71291;DHT22;59073;51.994;4.448;2023-04-25T10:46:23;10.50;60.13
71291;DHT22;59073;51.994;4.448;2023-04-25T10:51:23;11.21;59.61
71291;DHT22;59073;51.994;4.448;2023-04-25T10:56:27;10.62;60.23
71291;DHT22;59073;51.994;4.448;2023-04-25T10:59:17;9.69;61.25
71291;DHT22;59073;51.994;4.448;2023-04-25T11:01:45;9.35;59.94
71291;DHT22;59073;51.994;4.448;2023-04-25T11:09:15;10.79;60.90
71291;DHT22;59073;51.994;4.448;2023-04-25T11:11:40;10.60;58.68
71291;DHT22;59073;51.994;4.448;2023-04-25T11:14:06;9.93;59.55
71291;DHT22;59073;51.994;4.448;2023-04-25T11:16:32;9.59;60.13
71291;DHT22;59073;51.994;4.448;2023-04-25T11:18:58;9.63;58.64
71291;DHT22;59073;51.994;4.448;2023-04-25T11:21:27;10.08;58.27
71291;DHT22;59073;51.994;4.448;2023-04-25T11:23:54;10.39;56.44
71291;DHT22;59073;51.994;4.448;2023-04-25T11:26:21;10.35;55.84
71291;DHT22;59073;51.994;4.448;2023-04-25T11:28:48;10.59;54.49
71291;DHT22;59073;51.994;4.448;2023-04-25T11:31:14;10.70;55.37
71291;DHT22;59073;51.994;4.448;2023-04-25T11:33:39;10.80;57.44
71291;DHT22;59073;51.994;4.448;2023-04-25T11:36:06;10.62;54.33
71291;DHT22;59073;51.994;4.448;2023-04-25T11:38:32;10.83;56.07
71291;DHT22;59073;51.994;4.448;2023-04-25T11:40:57;10.62;57.67
71291;DHT22;59073;51.994;4.448;2023-04-25T11:43:23;10.44;56.59
71291;DHT22;59073;51.994;4.448;2023-04-25T11:45:49;10.56;58.13
71291;DHT22;59073;51.994;4.448;2023-04-25T11:48:16;10.75;59.81
71291;DHT22;59073;51.994;4.448;2023-04-25T11:50:42;10.82;54.97
71291;DHT22;59073;51.994;4.448;2023-04-25T11:53:07;11.17;60.74
71291;DHT22;59073;51.994;4.448;2023-04-25T11:55:34;10.76;57.07
71291;DHT22;59073;51.994;4.448;2023-04-25T11:58:00;10.80;56.51
71291;DHT22;59073;51.994;4.448;2023-04-25T12:00:26;11.40;60.55
71291;DHT22;59073;51.994;4.448;2023-04-25T12:02:53;10.55;55.43
71291;DHT22;59073;51.994;4.448;2023-04-25T12:05:20;10.02;59.89
71291;DHT22;59073;51.994;4.448;2023-04-25T12:07:48;9.76;61.27
71291;DHT22;59073;51.994;4.448;2023-04-25T12:10:15;9.40;59.85
71291;DHT22;59073;51.994;4.448;2023-04-25T12:12:43;9.28;60.06
71291;DHT22;59073;51.994;4.448;2023-04-25T12:15:22;9.56;60.08
71291;DHT22;59073;51.994;4.448;2023-04-25T12:17:50;9.88;60.07
71291;DHT22;59073;51.994;4.448;2023-04-25T12:20:21;10.42;59.12
71291;DHT22;59073;51.994;4.448;2023-04-25T12:22:50;10.55;61.14
71291;DHT22;59073;51.994;4.448;2023-04-25T12:25:34;10.58;60.79
71291;DHT22;59073;51.994;4.448;2023-04-25T12:28:17;10.72;60.80
71291;DHT22;59073;51.994;4.448;2023-04-25T12:31:04;10.22;57.59
71291;DHT22;59073;51.994;4.448;2023-04-25T12:33:31;9.95;59.66
71291;DHT22;59073;51.994;4.448;2023-04-25T12:35:57;9.97;57.47
71291;DHT22;59073;51.994;4.448;2023-04-25T12:38:28;10.24;59.66
71291;DHT22;59073;51.994;4.448;2023-04-25T12:40:59;10.72;57.34
71291;DHT22;59073;51.994;4.448;2023-04-25T12:43:25;11.11;57.07
71291;DHT22;59073;51.994;4.448;2023-04-25T12:45:52;10.76;53.04
71291;DHT22;59073;51.994;4.448;2023-04-25T12:48:19;10.62;55.96
71291;DHT22;59073;51.994;4.448;2023-04-25T12:50:45;10.95;57.23
71291;DHT22;59073;51.994;4.448;2023-04-25T12:55:42;10.96;57.79
71291;DHT22;59073;51.994;4.448;2023-04-25T12:58:08;10.96;55.94
71291;DHT22;59073;51.994;4.448;2023-04-25T13:00:34;11.13;57.71
71291;DHT22;59073;51.994;4.448;2023-04-25T13:02:59;10.92;58.55
71291;DHT22;59073;51.994;4.448;2023-04-25T13:05:25;10.84;55.69
71291;DHT22;59073;51.994;4.448;2023-04-25T13:07:50;11.06;59.37
71291;DHT22;59073;51.994;4.448;2023-04-25T13:10:17;11.21;56.40
71291;DHT22;59073;51.994;4.448;2023-04-25T13:12:43;11.30;57.58
71291;DHT22;59073;51.994;4.448;2023-04-25T13:15:09;10.75;56.85
71291;DHT22;59073;51.994;4.448;2023-04-25T13:17:37;10.02;58.40
71291;DHT22;59073;51.994;4.448;2023-04-25T13:20:04;9.53;58.49
71291;DHT22;59073;51.994;4.448;2023-04-25T13:22:34;9.66;58.73
71291;DHT22;59073;51.994;4.448;2023-04-25T13:25:01;10.37;58.75
71291;DHT22;59073;51.994;4.448;2023-04-25T13:27:27;10.24;54.80
71291;DHT22;59073;51.994;4.448;2023-04-25T13:29:52;10.42;58.23
71291;DHT22;59073;51.994;4.448;2023-04-25T13:32:17;10.68;58.07
71291;DHT22;59073;51.994;4.448;2023-04-25T13:34:43;10.75;62.19
71291;DHT22;59073;51.994;4.448;2023-04-25T13:37:08;10.92;62.02
71291;DHT22;59073;51.994;4.448;2023-04-25T13:39:34;10.21;60.80
71291;DHT22;59073;51.994;4.448;2023-04-25T13:41:59;9.76;63.55
71291;DHT22;59073;51.994;4.448;2023-04-25T13:44:25;10.12;63.21
71291;DHT22;59073;51.994;4.448;2023-04-25T13:46:50;10.21;63.34
71291;DHT22;59073;51.994;4.448;2023-04-25T13:49:16;9.90;60.64
71291;DHT22;59073;51.994;4.448;2023-04-25T13:51:41;9.86;62.38
71291;DHT22;59073;51.994;4.448;2023-04-25T13:54:07;10.38;60.32
71291;DHT22;59073;51.994;4.448;2023-04-25T13:56:33;10.34;61.90
71291;DHT22;59073;51.994;4.448;2023-04-25T13:58:58;10.04;59.37
71291;DHT22;59073;51.994;4.448;2023-04-25T14:01:24;10.25;61.41
71291;DHT22;59073;51.994;4.448;2023-04-25T14:03:49;10.38;60.26
71291;DHT22;59073;51.994;4.448;2023-04-25T14:06:14;10.18;57.50
71291;DHT22;59073;51.994;4.448;2023-04-25T14:08:46;10.29;58.52
71291;DHT22;59073;51.994;4.448;2023-04-25T14:11:12;10.45;57.86
71291;DHT22;59073;51.994;4.448;2023-04-25T14:13:37;10.58;58.83
71291;DHT22;59073;51.994;4.448;2023-04-25T14:16:03;10.39;57.34
71291;DHT22;59073;51.994;4.448;2023-04-25T14:18:28;10.46;56.95
71291;DHT22;59073;51.994;4.448;2023-04-25T14:20:53;10.24;54.59
71291;DHT22;59073;51.994;4.448;2023-04-25T14:23:19;10.25;54.67
71291;DHT22;59073;51.994;4.448;2023-04-25T14:25:44;10.00;56.11
71291;DHT22;59073;51.994;4.448;2023-04-25T14:28:10;9.88;58.69
71291;DHT22;59073;51.994;4.448;2023-04-25T14:30:35;9.97;55.54
71291;DHT22;59073;51.994;4.448;2023-04-25T14:33:01;9.87;57.01
71291;DHT22;59073;51.994;4.448;2023-04-25T14:35:26;9.76;56.24
71291;DHT22;59073;51.994;4.448;2023-04-25T14:37:53;9.80;54.90
71291;DHT22;59073;51.994;4.448;2023-04-25T14:40:18;10.14;56.16
71291;DHT22;59073;51.994;4.448;2023-04-25T14:42:47;10.38;55.73
71291;DHT22;59073;51.994;4.448;2023-04-25T14:45:12;10.50;58.67
71291;DHT22;59073;51.994;4.448;2023-04-25T14:47:38;10.32;56.45
71291;DHT22;59073;51.994;4.448;2023-04-25T14:50:04;9.95;56.26
71291;DHT22;59073;51.994;4.448;2023-04-25T14:52:30;10.12;54.81
71291;DHT22;59073;51.994;4.448;2023-04-25T14:54:56;10.28;58.74
71291;DHT22;59073;51.994;4.448;2023-04-25T14:57:21;10.38;60.72
71291;DHT22;59073;51.994;4.448;2023-04-25T14:59:47;10.39;64.42
71291;DHT22;59073;51.994;4.448;2023-04-25T15:02:12;9.84;63.53
71291;DHT22;59073;51.994;4.448;2023-04-25T15:04:38;9.33;65.48
71291;DHT22;59073;51.994;4.448;2023-04-25T15:07:03;8.93;68.08
71291;DHT22;59073;51.994;4.448;2023-04-25T15:09:29;8.64;68.66
71291;DHT22;59073;51.994;4.448;2023-04-25T15:11:55;9.26;69.56
71291;DHT22;59073;51.994;4.448;2023-04-25T15:14:20;9.80;64.67
71291;DHT22;59073;51.994;4.448;2023-04-25T15:16:46;9.73;62.78
71291;DHT22;59073;51.994;4.448;2023-04-25T15:19:11;9.86;63.37
71291;DHT22;59073;51.994;4.448;2023-04-25T15:21:36;10.08;64.60
71291;DHT22;59073;51.994;4.448;2023-04-25T15:24:02;9.90;61.86
71291;DHT22;59073;51.994;4.448;2023-04-25T15:26:27;9.98;60.52
71291;DHT22;59073;51.994;4.448;2023-04-25T15:28:53;9.80;59.08
71291;DHT22;59073;51.994;4.448;2023-04-25T15:31:19;9.84;60.92
71291;DHT22;59073;51.994;4.448;2023-04-25T15:33:44;10.08;62.20
71291;DHT22;59073;51.994;4.448;2023-04-25T15:36:10;10.12;60.50
71291;DHT22;59073;51.994;4.448;2023-04-25T15:38:36;9.86;58.77
71291;DHT22;59073;51.994;4.448;2023-04-25T15:41:02;9.91;60.43
71291;DHT22;59073;51.994;4.448;2023-04-25T15:43:28;10.04;60.23
71291;DHT22;59073;51.994;4.448;2023-04-25T15:45:53;9.67;58.66
71291;DHT22;59073;51.994;4.448;2023-04-25T15:48:19;9.79;61.30
71291;DHT22;59073;51.994;4.448;2023-04-25T15:50:44;10.32;59.93
71291;DHT22;59073;51.994;4.448;2023-04-25T15:53:10;10.22;57.04
71291;DHT22;59073;51.994;4.448;2023-04-25T15:55:36;10.01;58.91